British Integrity — MGGF9 — position and weather

sailwx.info

Track history (hours):
 
Tides and Currents Weather Stations Pressure Air Temp Water Temp Dewpoint Dewpoint Depression Visibility Wind Speed Wind Dir Waves Ship Positions

British Integrity

Last reported at 2017-Nov-19 00:51 UTC. Time now 2017-Nov-24 07:16 UTC.
Position S 28°40' E 032°47'.

Type: Tanker. MMSI: 232366000.

Date/timePositionNaut miles runAvg speedWind from/ knotsBaromVisibWave heightAir tempDewpointWater temp
2017-Nov-19 00:51S 28°40' E 032°47'412.4
2017-Nov-19 00:30S 28°44' E 032°44'612.5
2017-Nov-19 00:00S 28°49' E 032°40'612.4
2017-Nov-18 23:31S 28°54' E 032°37'612.7
2017-Nov-18 23:01S 28°59' E 032°33'713.0
2017-Nov-18 22:30S 29°05' E 032°29'613.0
2017-Nov-18 22:01S 29°11' E 032°25'612.8
2017-Nov-18 21:31S 29°16' E 032°21'612.7
2017-Nov-18 21:01S 29°21' E 032°17'612.5
2017-Nov-18 20:30S 29°27' E 032°14'612.1
2017-Nov-18 20:00S 29°32' E 032°10'611.9
2017-Nov-18 19:29S 29°37' E 032°06'611.5
2017-Nov-18 18:56S 29°43' E 032°02'611.4
2017-Nov-18 18:23S 29°48' E 031°59'611.3
2017-Nov-18 17:52S 29°53' E 031°55'411.3
2017-Nov-18 17:31S 29°56' E 031°53'611.4
2017-Nov-18 17:01S 30°01' E 031°49'611.8
2017-Nov-18 16:31S 30°06' E 031°46'  
Track history (hours):
 
Tides and Currents Weather Stations Pressure Air Temp Water Temp Dewpoint Dewpoint Depression Visibility Wind Speed Wind Dir Waves Ship Positions

British Integrity

Last reported at 2017-Nov-19 00:51 UTC. Time now 2017-Nov-24 07:16 UTC.
Position S 28°40' E 032°47'.

Type: Tanker. MMSI: 232366000.

Date/timePositionNaut miles runAvg speedWind from/ knotsBaromVisibWave heightAir tempDewpointWater temp
2017-Nov-19 00:51S 28°40' E 032°47'412.4
2017-Nov-19 00:30S 28°44' E 032°44'612.5
2017-Nov-19 00:00S 28°49' E 032°40'612.4
2017-Nov-18 23:31S 28°54' E 032°37'612.7
2017-Nov-18 23:01S 28°59' E 032°33'713.0
2017-Nov-18 22:30S 29°05' E 032°29'613.0
2017-Nov-18 22:01S 29°11' E 032°25'612.8
2017-Nov-18 21:31S 29°16' E 032°21'612.7
2017-Nov-18 21:01S 29°21' E 032°17'612.5
2017-Nov-18 20:30S 29°27' E 032°14'612.1
2017-Nov-18 20:00S 29°32' E 032°10'611.9
2017-Nov-18 19:29S 29°37' E 032°06'611.5
2017-Nov-18 18:56S 29°43' E 032°02'611.4
2017-Nov-18 18:23S 29°48' E 031°59'611.3
2017-Nov-18 17:52S 29°53' E 031°55'411.3
2017-Nov-18 17:31S 29°56' E 031°53'611.4
2017-Nov-18 17:01S 30°01' E 031°49'611.8
2017-Nov-18 16:31S 30°06' E 031°46'  

Dump ship's entire track history